createdAt,value
2018-09-13T00:01:11.033Z,8.70
2018-09-13T00:04:44.257Z,8.40
2018-09-13T00:08:17.464Z,8.57
2018-09-13T00:11:50.689Z,9.30
2018-09-13T00:15:23.892Z,9.23
2018-09-13T00:18:57.133Z,11.27
2018-09-13T00:22:30.383Z,10.77
2018-09-13T00:26:03.624Z,10.67
2018-09-13T00:29:36.851Z,10.00
2018-09-13T00:33:10.104Z,10.40
2018-09-13T00:36:43.317Z,10.23
2018-09-13T00:40:16.588Z,9.40
2018-09-13T00:43:49.803Z,9.90
2018-09-13T00:47:23.017Z,9.40
2018-09-13T00:50:56.340Z,10.13
2018-09-13T00:54:29.541Z,12.00
2018-09-13T00:58:02.755Z,10.63
2018-09-13T01:01:35.983Z,11.30
2018-09-13T01:05:09.195Z,10.67
2018-09-13T01:08:42.463Z,15.10
2018-09-13T01:12:15.680Z,15.73
2018-09-13T01:15:48.894Z,15.40
2018-09-13T01:19:22.103Z,15.40
2018-09-13T01:22:55.327Z,12.20
2018-09-13T01:26:28.543Z,12.67
2018-09-13T01:30:01.764Z,12.07
2018-09-13T01:33:34.987Z,11.13
2018-09-13T01:37:08.191Z,11.33
2018-09-13T01:40:41.399Z,11.23
2018-09-13T01:44:14.620Z,11.53
2018-09-13T01:47:47.848Z,11.80
2018-09-13T01:51:21.064Z,11.23
2018-09-13T01:54:54.283Z,12.67
2018-09-13T01:58:27.532Z,11.53
2018-09-13T02:02:00.773Z,12.03
2018-09-13T02:05:33.975Z,11.53
2018-09-13T02:09:09.023Z,9.90
2018-09-13T02:12:42.255Z,10.80
2018-09-13T02:16:15.476Z,10.80
2018-09-13T02:19:48.687Z,11.23
2018-09-13T02:23:21.907Z,10.57
2018-09-13T02:26:55.134Z,11.80
2018-09-13T02:30:28.352Z,11.40
2018-09-13T02:34:01.568Z,11.43
2018-09-13T02:37:34.799Z,10.80
2018-09-13T02:41:08.021Z,10.20
2018-09-13T02:44:41.243Z,10.80
2018-09-13T02:48:14.457Z,11.40
2018-09-13T02:51:47.673Z,11.10
2018-09-13T02:55:20.905Z,10.67
2018-09-13T02:58:54.132Z,10.33
2018-09-13T03:02:27.355Z,10.80
2018-09-13T03:06:00.563Z,11.30
2018-09-13T03:09:33.795Z,11.50
2018-09-13T03:13:07.060Z,10.73
2018-09-13T03:16:40.315Z,11.33
2018-09-13T03:20:13.536Z,11.03
2018-09-13T03:23:46.775Z,10.60
2018-09-13T03:27:19.996Z,12.10
2018-09-13T03:30:53.262Z,11.47
2018-09-13T03:34:26.509Z,11.97
2018-09-13T03:37:59.727Z,12.10
2018-09-13T03:41:32.927Z,12.00
2018-09-13T03:45:06.143Z,10.90
2018-09-13T03:48:39.565Z,12.03
2018-09-13T03:52:12.784Z,12.60
2018-09-13T03:55:45.996Z,12.30
2018-09-13T03:59:19.227Z,10.80
2018-09-13T04:02:52.446Z,11.67
2018-09-13T04:06:25.675Z,9.87
2018-09-13T04:09:58.888Z,11.07
2018-09-13T04:13:32.109Z,11.13
2018-09-13T04:17:05.376Z,10.43
2018-09-13T04:20:38.579Z,11.97
2018-09-13T04:24:11.798Z,11.60
2018-09-13T04:27:45.015Z,12.37
2018-09-13T04:31:18.328Z,11.40
2018-09-13T04:34:51.531Z,12.57
2018-09-13T04:38:24.854Z,12.30
2018-09-13T04:41:59.151Z,12.33
2018-09-13T04:45:32.439Z,13.60
2018-09-13T04:49:06.127Z,10.17
2018-09-13T04:52:39.391Z,11.53
2018-09-13T04:56:12.651Z,12.17
2018-09-13T04:59:45.872Z,11.60
2018-09-13T05:03:19.933Z,13.03
2018-09-13T05:06:53.850Z,12.90
2018-09-13T05:10:27.101Z,12.93
2018-09-13T05:14:00.326Z,13.80
2018-09-13T05:17:33.583Z,13.80
2018-09-13T05:21:06.907Z,13.63
2018-09-13T05:24:40.122Z,14.77
2018-09-13T05:28:13.370Z,12.93
2018-09-13T05:31:46.646Z,14.77
2018-09-13T05:35:19.847Z,15.00
2018-09-13T05:38:53.167Z,12.73
2018-09-13T05:42:26.352Z,15.07
2018-09-13T05:45:59.560Z,13.43
2018-09-13T05:49:32.852Z,14.00
2018-09-13T05:53:06.088Z,13.50
2018-09-13T05:56:39.296Z,15.23
2018-09-13T06:00:12.551Z,14.93
2018-09-13T06:03:45.805Z,11.77
2018-09-13T06:07:19.029Z,15.53
2018-09-13T06:10:52.248Z,13.63
2018-09-13T06:14:25.476Z,13.40
2018-09-13T06:17:58.702Z,12.30
2018-09-13T06:21:31.928Z,14.97
2018-09-13T06:25:05.169Z,14.93
2018-09-13T06:28:38.401Z,15.87
2018-09-13T06:32:11.622Z,16.70
2018-09-13T06:35:44.851Z,16.93
2018-09-13T06:39:18.083Z,15.43
2018-09-13T06:42:51.288Z,14.07
2018-09-13T06:46:24.520Z,15.63
2018-09-13T06:49:57.801Z,16.43
2018-09-13T06:53:31.019Z,17.30
2018-09-13T06:57:04.255Z,18.27
2018-09-13T07:00:37.499Z,15.30
2018-09-13T07:04:10.737Z,14.83
2018-09-13T07:07:43.968Z,17.10
2018-09-13T07:11:17.206Z,15.77
2018-09-13T07:14:50.454Z,17.77
2018-09-13T07:18:23.671Z,17.07
2018-09-13T07:21:56.900Z,19.10
2018-09-13T07:25:30.120Z,16.40
2018-09-13T07:29:03.349Z,17.80
2018-09-13T07:32:36.593Z,18.13
2018-09-13T07:36:09.828Z,16.47
2018-09-13T07:39:43.060Z,19.27
2018-09-13T07:43:16.293Z,16.07
2018-09-13T07:46:49.521Z,17.93
2018-09-13T07:50:22.764Z,17.83
2018-09-13T07:53:56.002Z,15.30
2018-09-13T07:57:29.229Z,17.03
2018-09-13T08:01:02.476Z,18.33
2018-09-13T08:04:35.716Z,17.23
2018-09-13T08:08:08.948Z,18.17
2018-09-13T08:11:42.624Z,18.23
2018-09-13T08:15:15.796Z,19.23
2018-09-13T08:18:49.051Z,18.80
2018-09-13T08:22:22.274Z,18.70
2018-09-13T08:25:55.505Z,19.13
2018-09-13T08:29:28.735Z,18.30
2018-09-13T08:33:02.359Z,22.00
2018-09-13T08:36:35.592Z,19.37
2018-09-13T08:40:08.825Z,18.70
2018-09-13T08:43:42.251Z,20.33
2018-09-13T08:47:15.480Z,17.30
2018-09-13T08:50:48.788Z,18.47
2018-09-13T08:54:22.008Z,16.43
2018-09-13T08:57:55.267Z,17.93
2018-09-13T09:01:28.489Z,17.90
2018-09-13T09:05:01.691Z,17.07
2018-09-13T09:08:34.927Z,18.60
2018-09-13T09:12:08.139Z,18.30
2018-09-13T09:15:41.372Z,17.23
2018-09-13T09:19:14.592Z,18.70
2018-09-13T09:22:47.834Z,16.90
2018-09-13T09:26:21.044Z,20.07
2018-09-13T09:29:54.320Z,20.60
2018-09-13T09:33:27.533Z,19.87
2018-09-13T09:37:00.756Z,20.43
2018-09-13T09:40:33.998Z,22.33
2018-09-13T09:44:07.529Z,22.00
2018-09-13T09:47:40.740Z,24.50
2018-09-13T09:51:13.953Z,18.93
2018-09-13T09:54:47.216Z,19.80
2018-09-13T09:58:20.428Z,22.27
2018-09-13T10:01:59.116Z,23.80
2018-09-13T10:05:32.325Z,22.10
2018-09-13T10:09:07.487Z,22.00
2018-09-13T10:12:40.643Z,21.43
2018-09-13T10:16:19.257Z,19.87
2018-09-13T10:19:57.884Z,19.03
2018-09-13T10:23:36.337Z,19.17
2018-09-13T10:27:14.786Z,19.83
2018-09-13T10:30:53.348Z,18.67
2018-09-13T10:34:31.954Z,18.20
2018-09-13T10:38:10.766Z,19.50
2018-09-13T10:41:49.477Z,17.10
2018-09-13T10:45:31.956Z,18.50
2018-09-13T10:49:10.612Z,17.97
2018-09-13T10:52:47.563Z,17.60
2018-09-13T10:56:20.783Z,18.07
2018-09-13T10:59:54.011Z,17.63
2018-09-13T11:03:27.262Z,19.10
2018-09-13T11:07:00.476Z,16.03
2018-09-13T11:10:33.756Z,18.23
2018-09-13T11:14:13.717Z,18.10
2018-09-13T11:17:46.951Z,18.30
2018-09-13T11:21:20.182Z,19.57
2018-09-13T11:24:53.429Z,17.60
2018-09-13T11:28:26.648Z,19.50
2018-09-13T11:31:59.932Z,18.57
2018-09-13T11:35:33.266Z,17.90
2018-09-13T11:39:08.660Z,18.90
2018-09-13T11:42:42.585Z,18.97
2018-09-13T11:46:16.067Z,19.67
2018-09-13T11:49:49.300Z,19.30
2018-09-13T11:53:22.615Z,18.93
2018-09-13T11:56:55.845Z,17.97
2018-09-13T12:00:29.086Z,18.70
2018-09-13T12:04:02.316Z,19.10
2018-09-13T12:07:35.556Z,17.77
2018-09-13T12:11:08.772Z,20.47
2018-09-13T12:14:42.012Z,20.60
2018-09-13T12:18:15.388Z,20.53
2018-09-13T12:21:48.567Z,19.77
2018-09-13T12:25:21.811Z,17.93
2018-09-13T12:28:55.151Z,19.07
2018-09-13T12:32:28.396Z,17.33
2018-09-13T12:36:01.622Z,18.43
2018-09-13T12:39:34.858Z,21.90
2018-09-13T12:43:08.129Z,19.03
2018-09-13T12:46:41.375Z,18.90
2018-09-13T12:50:15.223Z,19.80
2018-09-13T12:53:48.415Z,20.40
2018-09-13T12:57:21.823Z,21.90
2018-09-13T13:00:54.925Z,19.83
2018-09-13T13:04:28.160Z,19.03
2018-09-13T13:08:01.416Z,22.20
2018-09-13T13:11:34.655Z,18.93
2018-09-13T13:15:07.890Z,21.50
2018-09-13T13:18:41.155Z,20.00
2018-09-13T13:22:14.391Z,22.90
2018-09-13T13:25:47.617Z,21.77
2018-09-13T13:29:20.848Z,20.30
2018-09-13T13:32:54.133Z,18.87
2018-09-13T13:36:27.415Z,18.00
2018-09-13T13:40:01.415Z,18.53
2018-09-13T13:43:34.668Z,20.00
2018-09-13T13:47:08.116Z,18.63
2018-09-13T13:50:41.339Z,17.70
2018-09-13T13:54:14.572Z,18.17
2018-09-13T13:57:47.832Z,16.10
2018-09-13T14:01:21.071Z,17.80
2018-09-13T14:04:54.324Z,17.57
2018-09-13T14:08:27.556Z,16.63
2018-09-13T14:12:00.783Z,14.37
2018-09-13T14:15:34.064Z,15.10
2018-09-13T14:19:07.323Z,14.90
2018-09-13T14:22:40.556Z,16.20
2018-09-13T14:26:13.810Z,15.03
2018-09-13T14:29:47.085Z,14.70
2018-09-13T14:33:20.299Z,13.80
2018-09-13T14:36:53.541Z,14.27
2018-09-13T14:40:26.798Z,12.00
2018-09-13T14:44:00.037Z,14.07
2018-09-13T14:47:33.339Z,13.03
2018-09-13T14:51:06.881Z,15.07
2018-09-13T14:54:40.104Z,14.00
2018-09-13T14:58:13.371Z,14.70
2018-09-13T15:01:47.267Z,14.53
2018-09-13T15:05:20.515Z,13.83
2018-09-13T15:08:53.745Z,13.50
2018-09-13T15:12:26.996Z,13.63
2018-09-13T15:16:00.219Z,12.60
2018-09-13T15:19:33.540Z,13.30
2018-09-13T15:23:06.784Z,12.77
2018-09-13T15:26:40.022Z,11.50
2018-09-13T15:30:13.317Z,11.40
2018-09-13T15:33:46.534Z,12.53
2018-09-13T15:37:19.801Z,10.90
2018-09-13T15:40:53.019Z,10.47
2018-09-13T15:44:26.282Z,9.20
2018-09-13T15:47:59.922Z,8.83
2018-09-13T15:51:33.268Z,8.43
2018-09-13T15:55:06.505Z,8.73
2018-09-13T15:58:39.928Z,8.00
2018-09-13T16:02:13.207Z,9.27
2018-09-13T16:05:46.427Z,8.33
2018-09-13T16:09:19.672Z,9.50
2018-09-13T16:12:53.007Z,9.70
2018-09-13T16:16:26.165Z,11.17
2018-09-13T16:19:59.437Z,11.50
2018-09-13T16:23:32.668Z,13.60
2018-09-13T16:27:05.905Z,10.80
2018-09-13T16:30:39.259Z,10.80
2018-09-13T16:34:12.497Z,10.13
2018-09-13T16:37:51.216Z,9.70
2018-09-13T16:41:31.415Z,11.07
2018-09-13T16:45:04.660Z,10.23
2018-09-13T16:48:41.761Z,9.60
2018-09-13T16:52:14.987Z,10.33
2018-09-13T16:55:48.272Z,9.63
2018-09-13T16:59:21.533Z,10.40
2018-09-13T17:02:55.221Z,7.93
2018-09-13T17:06:28.434Z,10.13
2018-09-13T17:10:01.716Z,10.40
2018-09-13T17:13:35.130Z,12.27
2018-09-13T17:17:08.364Z,10.90
2018-09-13T17:20:41.586Z,10.87
2018-09-13T17:24:14.812Z,8.83
2018-09-13T17:27:48.019Z,8.77
2018-09-13T17:31:21.243Z,9.67
2018-09-13T17:34:54.484Z,10.43
2018-09-13T17:38:27.695Z,8.37
2018-09-13T17:42:00.901Z,10.80
2018-09-13T17:45:34.879Z,11.23
2018-09-13T17:49:08.116Z,11.07
2018-09-13T17:52:41.348Z,11.00
2018-09-13T17:56:14.592Z,10.57
2018-09-13T17:59:47.838Z,10.60
2018-09-13T18:03:21.112Z,12.23
2018-09-13T18:06:54.339Z,11.10
2018-09-13T18:10:27.584Z,11.40
2018-09-13T18:14:00.815Z,11.27
2018-09-13T18:17:34.041Z,10.10
2018-09-13T18:21:07.260Z,10.73
2018-09-13T18:24:40.501Z,10.30
2018-09-13T18:28:13.730Z,12.30
2018-09-13T18:31:46.959Z,11.30
2018-09-13T18:35:20.235Z,10.50
2018-09-13T18:38:53.434Z,11.43
2018-09-13T18:42:26.677Z,10.80
2018-09-13T18:46:00.573Z,11.57
2018-09-13T18:49:33.804Z,11.47
2018-09-13T18:53:07.140Z,11.40
2018-09-13T18:56:40.360Z,12.63
2018-09-13T19:00:13.704Z,11.83
2018-09-13T19:03:46.927Z,11.30
2018-09-13T19:07:20.156Z,11.40
2018-09-13T19:10:53.435Z,9.77
2018-09-13T19:14:26.617Z,10.77
2018-09-13T19:17:59.847Z,10.23
2018-09-13T19:21:33.059Z,10.00
2018-09-13T19:25:06.276Z,10.60
2018-09-13T19:28:39.516Z,11.60
2018-09-13T19:32:13.020Z,10.60
2018-09-13T19:35:46.244Z,10.87
2018-09-13T19:39:19.483Z,9.80
2018-09-13T19:42:52.715Z,9.37
2018-09-13T19:46:25.921Z,8.73
2018-09-13T19:49:59.165Z,10.10
2018-09-13T19:53:32.418Z,9.30
2018-09-13T19:57:06.092Z,10.40
2018-09-13T20:00:39.328Z,8.70
2018-09-13T20:04:12.789Z,9.10
2018-09-13T20:07:46.008Z,9.10
2018-09-13T20:11:19.236Z,10.43
2018-09-13T20:14:52.647Z,11.20
2018-09-13T20:18:26.003Z,9.37
2018-09-13T20:21:59.133Z,10.80
2018-09-13T20:25:32.368Z,10.93
2018-09-13T20:29:06.435Z,11.00
2018-09-13T20:32:39.642Z,11.00
2018-09-13T20:36:12.893Z,11.03
2018-09-13T20:39:46.109Z,11.70
2018-09-13T20:43:19.331Z,12.43
2018-09-13T20:46:52.563Z,11.03
2018-09-13T20:50:25.798Z,11.20
2018-09-13T20:53:59.032Z,12.47
2018-09-13T20:57:32.246Z,12.03
2018-09-13T21:01:05.723Z,12.37
2018-09-13T21:04:38.957Z,11.90
2018-09-13T21:08:12.235Z,13.10
2018-09-13T21:11:45.460Z,12.60
2018-09-13T21:15:18.684Z,13.10
2018-09-13T21:18:51.901Z,13.20
2018-09-13T21:22:25.120Z,13.13
2018-09-13T21:25:58.325Z,12.73
2018-09-13T21:29:31.544Z,12.53
2018-09-13T21:33:04.800Z,12.43
2018-09-13T21:36:38.004Z,12.73
2018-09-13T21:40:11.233Z,13.50
2018-09-13T21:43:44.459Z,13.50
2018-09-13T21:47:17.695Z,12.77
2018-09-13T21:50:50.921Z,13.50
2018-09-13T21:54:24.149Z,12.80
2018-09-13T21:57:57.379Z,13.50
2018-09-13T22:01:30.623Z,13.03
2018-09-13T22:05:03.859Z,12.03
2018-09-13T22:08:37.056Z,13.33
2018-09-13T22:12:12.304Z,14.03
2018-09-13T22:15:45.520Z,14.40
2018-09-13T22:19:18.756Z,14.00
2018-09-13T22:22:51.977Z,13.47
2018-09-13T22:26:25.201Z,14.83
2018-09-13T22:29:58.439Z,14.43
2018-09-13T22:33:31.660Z,13.93
2018-09-13T22:37:04.870Z,14.90
2018-09-13T22:40:38.096Z,12.83
2018-09-13T22:44:11.292Z,14.80
2018-09-13T22:47:44.504Z,14.93
2018-09-13T22:51:18.004Z,14.63
2018-09-13T22:54:51.508Z,16.33
2018-09-13T22:58:24.721Z,14.57
2018-09-13T23:01:57.936Z,13.57
2018-09-13T23:05:31.208Z,14.37
2018-09-13T23:09:07.803Z,13.90
2018-09-13T23:12:41.047Z,14.40
2018-09-13T23:16:14.268Z,16.77
2018-09-13T23:19:47.473Z,14.93
2018-09-13T23:23:20.700Z,15.27
2018-09-13T23:26:53.913Z,14.40
2018-09-13T23:30:27.131Z,15.80
2018-09-13T23:34:00.337Z,15.83
2018-09-13T23:37:33.577Z,17.30
2018-09-13T23:41:06.803Z,17.80
2018-09-13T23:44:40.017Z,18.50
2018-09-13T23:48:13.232Z,17.50
2018-09-13T23:51:46.448Z,19.13
2018-09-13T23:55:19.691Z,20.50
2018-09-13T23:58:52.925Z,19.40
